Conway Springs, KS

4:47 PM CDT on October 31, 2014 (GMT -0500)
Dove Haven | Change Station
CLOSE
Current Station
Personal Weather Station
Location: Clearwater, KS
Elevation: 1394 ft
Nearby Weather Stations
Active Advisory: Freeze Warning

Elev 1394 ft 37.56 °N, 97.52 °W | Updated 2 minutes ago

Clear
Clear
48.9 °F
Feels Like 44 °F
N
12.0
Wind Variable Wind from NE
Gusts 14.0 mph

Today
High -- | Low -- °F
--% Chance of Precip.
Yesterday
High -- | Low -- °F
Precip. -- in
7:54 AM 6:33 PM
First Quarter, 59% visible
Pressure 30.43 in
Visibility 10.0 miles
Clouds Few 25000 ft
Windchill 44 °F
Dew Point 20 °F
Humidity 32%
Rainfall 0.00 in
Snow Depth Not available.
UV 0.0 out of 12
Pollen 1.60 out of 12
Air Quality Not available.
Flu Activity Not available.
METAR KICT 312053Z 03010KT 10SM FEW250 11/M10 A3043

More Conditions Fewer Conditions

Pressure 30.43 in
Visibility 10.0 miles
Clouds Few 25000 ft
Windchill 44 °F
Dew Point 20 °F
Humidity 32%
Rainfall 0.00 in
Snow Depth Not available.
UV 0.0 out of 12
Pollen 1.60 out of 12
Air Quality Not available.
Flu Activity Not available.
METAR KICT 312053Z 03010KT 10SM FEW250 11/M10 A3043

More Conditions Fewer Conditions

10-Day Weather Forecast

Almanac

Astronomy

Oct. 31, 2014 Rise Set
Actual Time
Civil Twilight
Nautical Twilight
Astronomical Twilight
Moon
Length of Visible Light
Length of Day
Tomorrow will be .
, % of the Moon is Illuminated

Today's Extremes

State Highs State Lows

Community

WunderPhotos

Upload Photos

1,766,740 photos uploaded!

WunderBlogs® & News

Nearby

Air Quality

  Air Quality AQ Index Pollutant
Not available.

Snow Depth

Station Depth Elevation

Earthquake Activity

City Distance Mag. Time & Date
Minimum magnitude displayed is 2.5.

Coastal Water Temperatures

Place Temperature

Nearby Weather Stations